createdAt,value
2018-09-19T00:00:42.381Z,22.16
2018-09-19T00:01:42.491Z,22.13
2018-09-19T00:02:42.428Z,22.15
2018-09-19T00:03:42.401Z,22.09
2018-09-19T00:04:42.374Z,22.11
2018-09-19T00:05:42.945Z,22.09
2018-09-19T00:06:42.355Z,22.05
2018-09-19T00:07:42.434Z,22.03
2018-09-19T00:08:43.291Z,22.02
2018-09-19T00:09:42.376Z,22.02
2018-09-19T00:10:42.383Z,21.99
2018-09-19T00:11:42.349Z,21.96
2018-09-19T00:12:42.354Z,21.99
2018-09-19T00:13:42.475Z,21.99
2018-09-19T00:14:42.549Z,21.96
2018-09-19T00:15:42.423Z,21.96
2018-09-19T00:16:42.359Z,21.96
2018-09-19T00:17:42.449Z,21.96
2018-09-19T00:18:42.354Z,21.95
2018-09-19T00:19:42.843Z,21.96
2018-09-19T00:20:42.386Z,21.92
2018-09-19T00:21:42.368Z,21.89
2018-09-19T00:22:42.337Z,21.91
2018-09-19T00:23:42.343Z,21.91
2018-09-19T00:24:42.411Z,21.92
2018-09-19T00:25:42.557Z,21.89
2018-09-19T00:26:42.698Z,21.89
2018-09-19T00:27:42.416Z,21.86
2018-09-19T00:28:42.352Z,21.91
2018-09-19T00:29:42.485Z,21.86
2018-09-19T00:30:42.344Z,21.88
2018-09-19T00:31:42.639Z,21.86
2018-09-19T00:32:42.563Z,21.86
2018-09-19T00:33:42.362Z,21.82
2018-09-19T00:34:42.371Z,21.81
2018-09-19T00:35:42.423Z,21.79
2018-09-19T00:36:42.425Z,21.79
2018-09-19T00:37:42.533Z,21.77
2018-09-19T00:38:42.528Z,21.77
2018-09-19T00:39:42.386Z,21.77
2018-09-19T00:40:42.388Z,21.72
2018-09-19T00:41:42.363Z,21.77
2018-09-19T00:42:42.465Z,21.72
2018-09-19T00:43:42.423Z,21.74
2018-09-19T00:44:42.658Z,21.71
2018-09-19T00:45:42.374Z,21.69
2018-09-19T00:46:42.387Z,21.69
2018-09-19T00:47:42.396Z,21.65
2018-09-19T00:48:42.606Z,21.61
2018-09-19T00:49:42.435Z,21.62
2018-09-19T00:50:42.374Z,21.61
2018-09-19T00:51:42.804Z,21.62
2018-09-19T00:52:42.423Z,21.61
2018-09-19T00:53:42.396Z,21.61
2018-09-19T00:54:42.425Z,21.58
2018-09-19T00:55:42.406Z,21.57
2018-09-19T00:56:42.513Z,21.56
2018-09-19T00:57:42.382Z,21.53
2018-09-19T00:58:42.585Z,21.56
2018-09-19T00:59:42.413Z,21.53
2018-09-19T01:00:42.631Z,21.51
2018-09-19T01:01:42.410Z,21.51
2018-09-19T01:02:42.376Z,21.5
2018-09-19T01:03:42.419Z,21.46
2018-09-19T01:04:42.376Z,21.47
2018-09-19T01:05:42.424Z,21.44
2018-09-19T01:06:42.417Z,21.41
2018-09-19T01:07:42.480Z,21.39
2018-09-19T01:08:42.446Z,21.4
2018-09-19T01:09:42.412Z,21.39
2018-09-19T01:10:42.682Z,21.33
2018-09-19T01:11:42.399Z,21.36
2018-09-19T01:12:42.422Z,21.33
2018-09-19T01:13:42.435Z,21.32
2018-09-19T01:14:42.385Z,21.33
2018-09-19T01:15:42.391Z,21.33
2018-09-19T01:16:42.398Z,21.33
2018-09-19T01:17:42.386Z,21.29
2018-09-19T01:18:42.386Z,21.27
2018-09-19T01:19:42.424Z,21.29
2018-09-19T01:20:42.568Z,21.29
2018-09-19T01:21:42.494Z,21.22
2018-09-19T01:22:42.748Z,21.24
2018-09-19T01:23:42.395Z,21.22
2018-09-19T01:24:42.396Z,21.23
2018-09-19T01:25:42.521Z,21.23
2018-09-19T01:26:42.462Z,21.19
2018-09-19T01:27:42.564Z,21.2
2018-09-19T01:28:42.440Z,21.16
2018-09-19T01:29:42.402Z,21.17
2018-09-19T01:30:42.413Z,21.15
2018-09-19T01:31:42.584Z,21.17
2018-09-19T01:32:42.729Z,21.16
2018-09-19T01:33:42.429Z,21.13
2018-09-19T01:34:42.413Z,21.13
2018-09-19T01:35:42.462Z,21.12
2018-09-19T01:36:42.585Z,21.13
2018-09-19T01:37:42.393Z,21.1
2018-09-19T01:38:42.428Z,21.1
2018-09-19T01:39:42.453Z,21.1
2018-09-19T01:40:42.478Z,21.1
2018-09-19T01:41:42.538Z,21.1
2018-09-19T01:42:42.433Z,21.09
2018-09-19T01:43:42.644Z,21.09
2018-09-19T01:44:42.562Z,21.05
2018-09-19T01:45:42.463Z,21.06
2018-09-19T01:46:42.453Z,21.05
2018-09-19T01:47:42.630Z,21.05
2018-09-19T01:48:43.329Z,21.06
2018-09-19T01:49:42.534Z,21.02
2018-09-19T01:50:42.422Z,21.01
2018-09-19T01:51:42.462Z,21.03
2018-09-19T01:52:42.431Z,21.01
2018-09-19T01:53:42.444Z,21.03
2018-09-19T01:54:42.603Z,21.03
2018-09-19T01:55:42.454Z,20.99
2018-09-19T01:56:42.447Z,21.02
2018-09-19T01:57:42.504Z,20.99
2018-09-19T01:58:42.768Z,20.99
2018-09-19T01:59:42.482Z,20.99
2018-09-19T02:00:42.691Z,20.96
2018-09-19T02:01:42.474Z,20.95
2018-09-19T02:02:42.439Z,20.94
2018-09-19T02:03:42.436Z,20.94
2018-09-19T02:04:42.689Z,20.92
2018-09-19T02:05:42.542Z,20.91
2018-09-19T02:06:42.453Z,20.91
2018-09-19T02:07:42.439Z,20.91
2018-09-19T02:08:43.009Z,20.87
2018-09-19T02:09:43.162Z,20.87
2018-09-19T02:10:42.510Z,20.87
2018-09-19T02:11:42.516Z,20.84
2018-09-19T02:12:42.556Z,20.81
2018-09-19T02:13:42.453Z,20.81
2018-09-19T02:14:42.474Z,20.81
2018-09-19T02:15:42.445Z,20.78
2018-09-19T02:16:42.603Z,20.81
2018-09-19T02:17:42.500Z,20.78
2018-09-19T02:18:42.609Z,20.75
2018-09-19T02:19:42.561Z,20.74
2018-09-19T02:20:42.526Z,20.75
2018-09-19T02:21:42.471Z,20.71
2018-09-19T02:22:42.541Z,20.74
2018-09-19T02:23:42.554Z,20.7
2018-09-19T02:24:42.566Z,20.71
2018-09-19T02:25:42.446Z,20.65
2018-09-19T02:26:42.521Z,20.64
2018-09-19T02:27:42.511Z,20.65
2018-09-19T02:28:42.805Z,20.62
2018-09-19T02:29:42.410Z,20.61
2018-09-19T02:30:42.483Z,20.62
2018-09-19T02:31:42.449Z,20.58
2018-09-19T02:32:42.548Z,20.62
2018-09-19T02:33:42.460Z,20.6
2018-09-19T02:34:42.466Z,20.61
2018-09-19T02:35:42.498Z,20.58
2018-09-19T02:36:42.518Z,20.57
2018-09-19T02:37:42.477Z,20.54
2018-09-19T02:38:42.475Z,20.57
2018-09-19T02:39:42.507Z,20.54
2018-09-19T02:40:42.545Z,20.55
2018-09-19T02:41:42.463Z,20.54
2018-09-19T02:42:42.468Z,20.51
2018-09-19T02:43:42.483Z,20.5
2018-09-19T02:44:42.646Z,20.48
2018-09-19T02:45:42.489Z,20.51
2018-09-19T02:46:42.474Z,20.48
2018-09-19T02:47:42.840Z,20.51
2018-09-19T02:48:42.557Z,20.47
2018-09-19T02:49:42.572Z,20.48
2018-09-19T02:50:42.493Z,20.48
2018-09-19T02:51:42.534Z,20.47
2018-09-19T02:52:42.578Z,20.47
2018-09-19T02:53:42.616Z,20.43
2018-09-19T02:54:42.575Z,20.41
2018-09-19T02:55:42.509Z,20.41
2018-09-19T02:56:42.517Z,20.41
2018-09-19T02:57:42.540Z,20.41
2018-09-19T02:58:42.651Z,20.4
2018-09-19T02:59:42.574Z,20.4
2018-09-19T03:00:42.504Z,20.39
2018-09-19T03:01:42.496Z,20.39
2018-09-19T03:02:42.575Z,20.36
2018-09-19T03:03:42.467Z,20.36
2018-09-19T03:05:42.609Z,20.34
2018-09-19T03:06:42.488Z,20.32
2018-09-19T03:07:42.684Z,20.33
2018-09-19T03:08:42.547Z,20.32
2018-09-19T03:09:42.652Z,20.3
2018-09-19T03:10:42.625Z,20.26
2018-09-19T03:11:42.661Z,20.27
2018-09-19T03:12:42.463Z,20.27
2018-09-19T03:13:42.592Z,20.27
2018-09-19T03:14:42.620Z,20.26
2018-09-19T03:15:42.499Z,20.27
2018-09-19T03:16:42.665Z,20.24
2018-09-19T03:17:43.575Z,20.27
2018-09-19T03:18:42.470Z,20.26
2018-09-19T03:19:42.531Z,20.24
2018-09-19T03:20:42.522Z,20.24
2018-09-19T03:21:42.718Z,20.26
2018-09-19T03:22:42.491Z,20.22
2018-09-19T03:23:42.542Z,20.23
2018-09-19T03:24:42.495Z,20.2
2018-09-19T03:25:42.512Z,20.19
2018-09-19T03:26:42.629Z,20.17
2018-09-19T03:27:42.736Z,20.17
2018-09-19T03:28:42.521Z,20.16
2018-09-19T03:29:42.694Z,20.16
2018-09-19T03:30:42.606Z,20.16
2018-09-19T03:31:42.740Z,20.15
2018-09-19T03:32:42.583Z,20.15
2018-09-19T03:33:42.729Z,20.11
2018-09-19T03:34:42.501Z,20.12
2018-09-19T03:35:42.496Z,20.12
2018-09-19T03:36:42.820Z,20.11
2018-09-19T03:37:42.498Z,20.11
2018-09-19T03:38:42.673Z,20.09
2018-09-19T03:39:42.572Z,20.08
2018-09-19T03:40:42.579Z,20.08
2018-09-19T03:41:43.537Z,20.08
2018-09-19T03:42:42.521Z,20.06
2018-09-19T03:43:42.495Z,20.02
2018-09-19T03:44:42.538Z,20.04
2018-09-19T03:45:42.595Z,20.04
2018-09-19T03:46:42.572Z,20.02
2018-09-19T03:47:42.651Z,20.01
2018-09-19T03:48:42.680Z,20.01
2018-09-19T03:49:42.528Z,19.98
2018-09-19T03:50:42.526Z,19.99
2018-09-19T03:51:42.523Z,19.95
2018-09-19T03:52:42.501Z,19.96
2018-09-19T03:53:42.535Z,19.99
2018-09-19T03:54:42.657Z,19.96
2018-09-19T03:55:42.958Z,19.93
2018-09-19T03:56:42.520Z,19.96
2018-09-19T03:57:42.502Z,19.93
2018-09-19T03:58:42.537Z,19.95
2018-09-19T03:59:42.543Z,19.92
2018-09-19T04:00:42.505Z,19.95
2018-09-19T04:01:42.542Z,19.93
2018-09-19T04:02:42.573Z,19.92
2018-09-19T04:03:42.514Z,19.93
2018-09-19T04:04:42.521Z,19.93
2018-09-19T04:05:42.543Z,19.92
2018-09-19T04:06:42.521Z,19.95
2018-09-19T04:07:42.562Z,19.92
2018-09-19T04:08:42.548Z,19.92
2018-09-19T04:09:42.546Z,19.91
2018-09-19T04:10:43.084Z,19.91
2018-09-19T04:11:42.526Z,19.89
2018-09-19T04:12:42.604Z,19.91
2018-09-19T04:13:42.574Z,19.91
2018-09-19T04:14:42.628Z,19.91
2018-09-19T04:15:42.528Z,19.91
2018-09-19T04:16:42.712Z,19.89
2018-09-19T04:17:42.791Z,19.86
2018-09-19T04:18:42.626Z,19.88
2018-09-19T04:19:42.625Z,19.85
2018-09-19T04:20:42.545Z,19.85
2018-09-19T04:21:42.532Z,19.84
2018-09-19T04:22:42.583Z,19.84
2018-09-19T04:23:42.545Z,19.82
2018-09-19T04:24:42.543Z,19.84
2018-09-19T04:25:42.584Z,19.81
2018-09-19T04:26:42.701Z,19.81
2018-09-19T04:27:42.534Z,19.82
2018-09-19T04:28:42.585Z,19.79
2018-09-19T04:29:42.589Z,19.79
2018-09-19T04:30:42.570Z,19.79
2018-09-19T04:31:42.698Z,19.77
2018-09-19T04:32:42.711Z,19.75
2018-09-19T04:33:42.521Z,19.74
2018-09-19T04:34:42.743Z,19.74
2018-09-19T04:35:42.697Z,19.74
2018-09-19T04:36:42.576Z,19.75
2018-09-19T04:37:43.042Z,19.77
2018-09-19T04:38:42.794Z,19.74
2018-09-19T04:39:42.577Z,19.74
2018-09-19T04:40:42.754Z,19.72
2018-09-19T04:41:42.579Z,19.74
2018-09-19T04:42:42.543Z,19.7
2018-09-19T04:43:42.573Z,19.68
2018-09-19T04:44:42.764Z,19.67
2018-09-19T04:45:42.895Z,19.68
2018-09-19T04:46:42.621Z,19.7
2018-09-19T04:47:42.539Z,19.67
2018-09-19T04:48:42.651Z,19.65
2018-09-19T04:49:42.544Z,19.65
2018-09-19T04:50:42.721Z,19.65
2018-09-19T04:51:42.978Z,19.62
2018-09-19T04:52:42.602Z,19.64
2018-09-19T04:53:42.553Z,19.64
2018-09-19T04:54:42.554Z,19.61
2018-09-19T04:55:42.559Z,19.6
2018-09-19T04:56:42.786Z,19.61
2018-09-19T04:57:42.553Z,19.61
2018-09-19T04:58:42.700Z,19.6
2018-09-19T04:59:42.711Z,19.58
2018-09-19T05:00:42.594Z,19.57
2018-09-19T05:01:42.630Z,19.57
2018-09-19T05:02:42.583Z,19.56
2018-09-19T05:03:42.586Z,19.56
2018-09-19T05:04:42.629Z,19.57
2018-09-19T05:05:42.849Z,19.56
2018-09-19T05:06:42.650Z,19.57
2018-09-19T05:07:42.683Z,19.56
2018-09-19T05:08:42.565Z,19.54
2018-09-19T05:09:42.700Z,19.5
2018-09-19T05:10:42.999Z,19.46
2018-09-19T05:11:42.622Z,19.39
2018-09-19T05:12:42.617Z,19.26
2018-09-19T05:13:42.597Z,19.16
2018-09-19T05:14:42.595Z,19.21
2018-09-19T05:15:42.548Z,19.09
2018-09-19T05:16:42.662Z,18.91
2018-09-19T05:17:44.870Z,18.89
2018-09-19T05:18:42.595Z,18.89
2018-09-19T05:19:42.625Z,18.89
2018-09-19T05:20:42.595Z,18.91
2018-09-19T05:21:42.600Z,18.88
2018-09-19T05:22:42.595Z,18.88
2018-09-19T05:23:42.573Z,18.92
2018-09-19T05:24:42.607Z,18.94
2018-09-19T05:25:42.586Z,18.92
2018-09-19T05:26:42.634Z,18.92
2018-09-19T05:27:42.583Z,18.94
2018-09-19T05:28:42.622Z,18.94
2018-09-19T05:29:42.609Z,18.94
2018-09-19T05:30:43.040Z,18.91
2018-09-19T05:31:42.997Z,18.64
2018-09-19T05:32:42.616Z,18.71
2018-09-19T05:33:42.588Z,18.75
2018-09-19T05:34:42.589Z,18.77
2018-09-19T05:35:42.668Z,18.78
2018-09-19T05:36:42.592Z,18.71
2018-09-19T05:37:42.617Z,18.72
2018-09-19T05:38:42.671Z,18.72
2018-09-19T05:39:42.604Z,18.72
2018-09-19T05:40:42.748Z,18.72
2018-09-19T05:41:42.740Z,18.72
2018-09-19T05:42:42.747Z,18.71
2018-09-19T05:43:42.649Z,18.71
2018-09-19T05:44:42.907Z,18.74
2018-09-19T05:45:42.837Z,18.74
2018-09-19T05:46:42.661Z,18.77
2018-09-19T05:47:42.740Z,18.75
2018-09-19T05:48:42.722Z,18.77
2018-09-19T05:49:42.589Z,18.78
2018-09-19T05:50:42.701Z,18.77
2018-09-19T05:51:42.658Z,18.78
2018-09-19T05:52:42.642Z,18.8
2018-09-19T05:53:42.604Z,18.8
2018-09-19T05:54:42.614Z,18.81
2018-09-19T05:55:42.775Z,18.8
2018-09-19T05:56:42.697Z,18.82
2018-09-19T05:57:42.782Z,18.84
2018-09-19T05:58:42.722Z,18.87
2018-09-19T05:59:42.906Z,18.87
2018-09-19T06:00:42.594Z,18.85
2018-09-19T06:01:42.910Z,18.87
2018-09-19T06:02:42.607Z,18.88
2018-09-19T06:03:42.586Z,18.89
2018-09-19T06:04:42.817Z,18.89
2018-09-19T06:05:42.609Z,18.92
2018-09-19T06:06:42.720Z,18.91
2018-09-19T06:07:42.589Z,18.94
2018-09-19T06:08:42.615Z,18.94
2018-09-19T06:09:42.861Z,18.95
2018-09-19T06:10:42.583Z,18.98
2018-09-19T06:11:42.648Z,19.01
2018-09-19T06:12:43.050Z,19.02
2018-09-19T06:13:42.834Z,19.05
2018-09-19T06:14:42.655Z,19.05
2018-09-19T06:15:42.606Z,19.1
2018-09-19T06:16:42.719Z,19.12
2018-09-19T06:17:42.713Z,19.16
2018-09-19T06:18:43.079Z,19.17
2018-09-19T06:19:42.613Z,19.22
2018-09-19T06:20:42.645Z,19.25
2018-09-19T06:21:42.640Z,19.27
2018-09-19T06:22:42.640Z,19.32
2018-09-19T06:23:42.786Z,19.32
2018-09-19T06:24:42.635Z,19.36
2018-09-19T06:25:42.756Z,19.37
2018-09-19T06:26:43.087Z,19.39
2018-09-19T06:27:42.673Z,19.43
2018-09-19T06:28:42.821Z,19.46
2018-09-19T06:29:43.028Z,19.46
2018-09-19T06:30:42.647Z,19.47
2018-09-19T06:31:42.724Z,19.5
2018-09-19T06:32:42.848Z,19.51
2018-09-19T06:33:42.625Z,19.53
2018-09-19T06:34:42.632Z,19.54
2018-09-19T06:35:42.644Z,19.57
2018-09-19T06:36:43.050Z,19.58
2018-09-19T06:37:42.670Z,19.61
2018-09-19T06:38:42.819Z,19.62
2018-09-19T06:39:42.626Z,19.65
2018-09-19T06:40:43.535Z,19.65
2018-09-19T06:41:42.666Z,19.7
2018-09-19T06:42:42.641Z,19.71
2018-09-19T06:43:42.815Z,19.72
2018-09-19T06:44:42.636Z,19.77
2018-09-19T06:45:42.875Z,19.77
2018-09-19T06:46:42.799Z,19.78
2018-09-19T06:47:42.639Z,19.82
2018-09-19T06:48:42.642Z,19.85
2018-09-19T06:49:42.645Z,19.85
2018-09-19T06:50:42.655Z,19.88
2018-09-19T06:51:42.701Z,19.88
2018-09-19T06:52:42.631Z,19.92
2018-09-19T06:53:42.695Z,19.89
2018-09-19T06:54:42.722Z,19.93
2018-09-19T06:55:42.668Z,19.96
2018-09-19T06:56:42.779Z,19.96
2018-09-19T06:57:43.612Z,20.01
2018-09-19T06:58:42.790Z,20.04
2018-09-19T06:59:42.862Z,20.04
2018-09-19T07:00:42.764Z,20.08
2018-09-19T07:01:42.737Z,20.11
2018-09-19T07:02:42.799Z,20.13
2018-09-19T07:03:43.701Z,20.15
2018-09-19T07:04:42.873Z,20.15
2018-09-19T07:05:42.784Z,20.19
2018-09-19T07:06:42.633Z,20.2
2018-09-19T07:07:42.685Z,20.2
2018-09-19T07:08:42.734Z,20.26
2018-09-19T07:09:42.637Z,20.29
2018-09-19T07:10:43.620Z,20.33
2018-09-19T07:11:43.366Z,20.33
2018-09-19T07:12:42.789Z,20.34
2018-09-19T07:13:42.683Z,20.39
2018-09-19T07:14:42.864Z,20.41
2018-09-19T07:15:43.016Z,20.43
2018-09-19T07:16:42.701Z,20.47
2018-09-19T07:17:42.677Z,20.48
2018-09-19T07:18:42.803Z,20.5
2018-09-19T07:19:42.745Z,20.51
2018-09-19T07:20:43.065Z,20.51
2018-09-19T07:21:42.806Z,20.55
2018-09-19T07:22:42.763Z,20.6
2018-09-19T07:23:42.974Z,20.61
2018-09-19T07:24:42.666Z,20.64
2018-09-19T07:25:42.732Z,20.67
2018-09-19T07:26:42.671Z,20.68
2018-09-19T07:27:42.816Z,20.67
2018-09-19T07:28:42.787Z,20.7
2018-09-19T07:29:42.821Z,20.72
2018-09-19T07:30:42.825Z,20.78
2018-09-19T07:31:42.671Z,20.78
2018-09-19T07:32:42.871Z,20.82
2018-09-19T07:33:42.643Z,20.85
2018-09-19T07:34:42.832Z,20.89
2018-09-19T07:35:42.692Z,20.88
2018-09-19T07:36:43.075Z,20.92
2018-09-19T07:37:42.671Z,20.95
2018-09-19T07:38:42.779Z,20.96
2018-09-19T07:39:42.663Z,21.03
2018-09-19T07:40:42.804Z,21.03
2018-09-19T07:41:42.729Z,21.09
2018-09-19T07:42:42.667Z,21.12
2018-09-19T07:43:42.821Z,21.13
2018-09-19T07:44:42.660Z,21.16
2018-09-19T07:45:42.709Z,21.2
2018-09-19T07:46:43.876Z,21.22
2018-09-19T07:47:42.662Z,21.26
2018-09-19T07:48:42.757Z,21.27
2018-09-19T07:49:42.662Z,21.3
2018-09-19T07:50:43.568Z,21.32
2018-09-19T07:51:42.704Z,21.36
2018-09-19T07:52:42.696Z,21.37
2018-09-19T07:53:42.769Z,21.43
2018-09-19T07:54:42.981Z,21.44
2018-09-19T07:55:42.680Z,21.49
2018-09-19T07:56:42.728Z,21.53
2018-09-19T07:57:42.760Z,21.57
2018-09-19T07:58:42.677Z,21.58
2018-09-19T07:59:42.669Z,21.62
2018-09-19T08:00:43.449Z,21.65
2018-09-19T08:01:42.690Z,21.68
2018-09-19T08:02:42.692Z,21.71
2018-09-19T08:03:43.235Z,21.74
2018-09-19T08:04:42.669Z,21.77
2018-09-19T08:05:43.047Z,21.78
2018-09-19T08:06:42.777Z,21.79
2018-09-19T08:07:42.710Z,21.84
2018-09-19T08:08:42.731Z,21.88
2018-09-19T08:09:42.776Z,21.91
2018-09-19T08:10:42.798Z,21.94
2018-09-19T08:11:42.684Z,21.96
2018-09-19T08:12:42.677Z,21.99
2018-09-19T08:13:42.921Z,22.06
2018-09-19T08:14:42.807Z,22.03
2018-09-19T08:15:42.691Z,22.09
2018-09-19T08:16:42.877Z,22.11
2018-09-19T08:17:42.691Z,22.16
2018-09-19T08:18:42.682Z,22.16
2018-09-19T08:19:42.720Z,22.17
2018-09-19T08:20:42.684Z,22.17
2018-09-19T08:21:42.963Z,22.22
2018-09-19T08:22:42.899Z,22.29
2018-09-19T08:23:42.763Z,22.3
2018-09-19T08:24:42.672Z,22.36
2018-09-19T08:25:42.739Z,22.41
2018-09-19T08:26:42.680Z,22.41
2018-09-19T08:27:42.693Z,22.41
2018-09-19T08:28:42.767Z,22.43
2018-09-19T08:29:42.713Z,22.44
2018-09-19T08:30:42.686Z,22.44
2018-09-19T08:31:42.719Z,22.46
2018-09-19T08:32:42.856Z,22.46
2018-09-19T08:33:42.701Z,22.46
2018-09-19T08:34:42.683Z,22.51
2018-09-19T08:35:42.747Z,22.54
2018-09-19T08:36:42.707Z,22.6
2018-09-19T08:37:42.681Z,22.64
2018-09-19T08:38:42.674Z,22.65
2018-09-19T08:39:42.692Z,22.74
2018-09-19T08:40:43.633Z,22.79
2018-09-19T08:41:42.687Z,22.81
2018-09-19T08:42:43.079Z,22.86
2018-09-19T08:43:42.735Z,22.85
2018-09-19T08:44:42.990Z,22.85
2018-09-19T08:45:43.172Z,22.89
2018-09-19T08:46:42.755Z,22.92
2018-09-19T08:47:42.726Z,22.96
2018-09-19T08:48:42.798Z,22.96
2018-09-19T08:49:43.041Z,22.99
2018-09-19T08:50:43.461Z,23.01
2018-09-19T08:51:42.763Z,23.05
2018-09-19T08:52:42.708Z,23.13
2018-09-19T08:53:42.701Z,23.16
2018-09-19T08:54:42.876Z,23.19
2018-09-19T08:55:42.809Z,23.22
2018-09-19T08:56:42.790Z,23.25
2018-09-19T08:57:42.859Z,23.26
2018-09-19T08:58:42.945Z,23.27
2018-09-19T08:59:42.781Z,23.3
2018-09-19T09:00:42.854Z,23.27
2018-09-19T09:01:42.758Z,23.29
2018-09-19T09:02:43.404Z,23.29
2018-09-19T09:03:42.741Z,23.3
2018-09-19T09:04:43.151Z,23.33
2018-09-19T09:05:43.297Z,23.34
2018-09-19T09:06:42.725Z,23.37
2018-09-19T09:07:42.715Z,23.39
2018-09-19T09:08:42.934Z,23.36
2018-09-19T09:09:42.738Z,23.37
2018-09-19T09:10:43.066Z,23.44
2018-09-19T09:11:42.717Z,23.48
2018-09-19T09:12:43.046Z,23.53
2018-09-19T09:13:42.709Z,23.58
2018-09-19T09:14:42.737Z,23.61
2018-09-19T09:15:43.135Z,23.67
2018-09-19T09:16:42.899Z,23.73
2018-09-19T09:17:42.829Z,23.77
2018-09-19T09:18:43.152Z,23.77
2018-09-19T09:19:42.919Z,23.85
2018-09-19T09:20:42.799Z,23.89
2018-09-19T09:21:42.729Z,23.93
2018-09-19T09:22:42.725Z,23.99
2018-09-19T09:23:42.847Z,24.03
2018-09-19T09:24:43.092Z,24.09
2018-09-19T09:25:42.819Z,24.13
2018-09-19T09:26:43.014Z,24.17
2018-09-19T09:27:42.723Z,24.21
2018-09-19T09:28:42.739Z,24.2
2018-09-19T09:29:42.848Z,24.27
2018-09-19T09:30:42.714Z,24.37
2018-09-19T09:31:42.730Z,24.39
2018-09-19T09:32:42.713Z,24.4
2018-09-19T09:33:42.749Z,24.37
2018-09-19T09:34:42.748Z,24.4
2018-09-19T09:35:43.065Z,24.47
2018-09-19T09:36:42.872Z,24.51
2018-09-19T09:37:42.716Z,24.55
2018-09-19T09:38:42.750Z,24.58
2018-09-19T09:39:42.738Z,24.61
2018-09-19T09:40:42.793Z,24.68
2018-09-19T09:41:42.739Z,24.72
2018-09-19T09:42:43.004Z,24.77
2018-09-19T09:43:42.814Z,24.79
2018-09-19T09:44:42.808Z,24.85
2018-09-19T09:45:42.761Z,24.92
2018-09-19T09:46:42.761Z,24.94
2018-09-19T09:47:42.774Z,24.99
2018-09-19T09:48:43.152Z,25.02
2018-09-19T09:49:42.944Z,24.99
2018-09-19T09:50:42.720Z,24.98
2018-09-19T09:51:42.749Z,25.02
2018-09-19T09:52:42.767Z,25.02
2018-09-19T09:53:42.765Z,25.09
2018-09-19T09:54:42.762Z,25.15
2018-09-19T09:55:42.808Z,25.22
2018-09-19T09:56:42.741Z,25.25
2018-09-19T09:57:42.791Z,25.29
2018-09-19T09:58:42.760Z,25.32
2018-09-19T09:59:42.765Z,25.34
2018-09-19T10:00:42.805Z,25.44
2018-09-19T10:01:43.200Z,25.47
2018-09-19T10:02:42.765Z,25.48
2018-09-19T10:03:42.804Z,25.56
2018-09-19T10:04:42.741Z,25.56
2018-09-19T10:05:43.151Z,25.61
2018-09-19T10:06:42.970Z,25.64
2018-09-19T10:07:43.009Z,25.63
2018-09-19T10:08:43.080Z,25.67
2018-09-19T10:09:42.738Z,25.68
2018-09-19T10:10:42.795Z,25.67
2018-09-19T10:11:42.793Z,25.7
2018-09-19T10:12:43.659Z,25.75
2018-09-19T10:13:43.081Z,25.81
2018-09-19T10:14:42.749Z,25.85
2018-09-19T10:15:42.783Z,25.87
2018-09-19T10:16:42.798Z,25.92
2018-09-19T10:17:42.856Z,25.82
2018-09-19T10:18:42.817Z,25.84
2018-09-19T10:19:42.784Z,25.84
2018-09-19T10:20:42.782Z,25.85
2018-09-19T10:21:43.320Z,25.88
2018-09-19T10:22:42.817Z,25.93
2018-09-19T10:23:42.803Z,25.93
2018-09-19T10:24:42.797Z,25.95
2018-09-19T10:25:43.195Z,25.98
2018-09-19T10:26:42.791Z,26.02
2018-09-19T10:27:42.792Z,26.1
2018-09-19T10:28:42.807Z,26.13
2018-09-19T10:29:43.128Z,26.13
2018-09-19T10:30:43.041Z,26.17
2018-09-19T10:31:42.766Z,26.19
2018-09-19T10:32:42.790Z,26.22
2018-09-19T10:33:42.972Z,26.26
2018-09-19T10:34:43.080Z,26.34
2018-09-19T10:35:42.801Z,26.33
2018-09-19T10:36:43.124Z,26.37
2018-09-19T10:37:43.054Z,26.42
2018-09-19T10:38:42.901Z,26.42
2018-09-19T10:39:42.860Z,26.43
2018-09-19T10:40:43.027Z,26.43
2018-09-19T10:41:42.852Z,26.43
2018-09-19T10:42:43.200Z,26.47
2018-09-19T10:43:42.860Z,26.48
2018-09-19T10:44:42.820Z,26.5
2018-09-19T10:45:42.833Z,26.5
2018-09-19T10:46:43.029Z,26.54
2018-09-19T10:47:43.070Z,26.58
2018-09-19T10:48:42.832Z,26.6
2018-09-19T10:49:43.260Z,26.61
2018-09-19T10:50:43.014Z,26.68
2018-09-19T10:51:42.990Z,26.71
2018-09-19T10:52:42.923Z,26.71
2018-09-19T10:53:43.141Z,26.74
2018-09-19T10:54:42.837Z,26.75
2018-09-19T10:55:42.891Z,26.82
2018-09-19T10:56:42.903Z,26.85
2018-09-19T10:57:42.997Z,26.89
2018-09-19T10:58:42.863Z,26.96
2018-09-19T10:59:42.839Z,26.96
2018-09-19T11:00:42.876Z,27.01
2018-09-19T11:01:42.803Z,27.01
2018-09-19T11:02:42.800Z,27.02
2018-09-19T11:03:42.838Z,27.06
2018-09-19T11:04:43.535Z,27.09
2018-09-19T11:05:42.841Z,27.15
2018-09-19T11:06:42.804Z,27.23
2018-09-19T11:07:43.167Z,27.24
2018-09-19T11:08:42.866Z,27.26
2018-09-19T11:09:42.833Z,27.32
2018-09-19T11:10:42.919Z,27.33
2018-09-19T11:11:42.914Z,27.36
2018-09-19T11:12:42.814Z,27.39
2018-09-19T11:13:42.839Z,27.44
2018-09-19T11:14:42.840Z,27.47
2018-09-19T11:15:43.442Z,27.53
2018-09-19T11:16:42.841Z,27.53
2018-09-19T11:17:42.827Z,27.53
2018-09-19T11:18:42.812Z,27.51
2018-09-19T11:19:42.805Z,27.56
2018-09-19T11:20:42.852Z,27.57
2018-09-19T11:21:42.830Z,27.6
2018-09-19T11:22:42.975Z,27.68
2018-09-19T11:23:42.853Z,27.72
2018-09-19T11:24:42.830Z,27.72
2018-09-19T11:25:42.973Z,27.74
2018-09-19T11:26:42.831Z,27.75
2018-09-19T11:27:48.835Z,27.82
2018-09-19T11:28:42.848Z,27.84
2018-09-19T11:29:42.891Z,27.88
2018-09-19T11:30:42.928Z,27.89
2018-09-19T11:31:42.880Z,27.88
2018-09-19T11:32:43.180Z,27.88
2018-09-19T11:33:42.937Z,27.87
2018-09-19T11:34:42.987Z,27.82
2018-09-19T11:35:43.164Z,27.82
2018-09-19T11:36:42.831Z,27.87
2018-09-19T11:37:42.841Z,27.89
2018-09-19T11:38:43.289Z,27.93
2018-09-19T11:39:42.975Z,27.99
2018-09-19T11:40:43.078Z,28.02
2018-09-19T11:41:42.838Z,28.05
2018-09-19T11:42:43.221Z,28.09
2018-09-19T11:43:44.053Z,28.13
2018-09-19T11:44:43.116Z,28.16
2018-09-19T11:45:43.263Z,28.18
2018-09-19T11:46:43.232Z,28.19
2018-09-19T11:47:43.153Z,28.19
2018-09-19T11:48:44.527Z,28.24
2018-09-19T11:49:44.291Z,28.27
2018-09-19T11:50:43.276Z,28.32
2018-09-19T11:51:43.081Z,28.37
2018-09-19T11:52:43.088Z,28.36
2018-09-19T11:53:42.975Z,28.36
2018-09-19T11:54:43.210Z,28.33
2018-09-19T11:55:43.197Z,28.4
2018-09-19T11:56:43.009Z,28.43
2018-09-19T11:57:43.761Z,28.41
2018-09-19T11:58:44.375Z,28.41
2018-09-19T11:59:43.119Z,28.39
2018-09-19T12:00:43.040Z,28.43
2018-09-19T12:01:43.246Z,28.41
2018-09-19T12:02:43.042Z,28.46
2018-09-19T12:03:43.159Z,28.48
2018-09-19T12:04:43.462Z,28.48
2018-09-19T12:05:43.379Z,28.52
2018-09-19T12:06:43.159Z,28.5
2018-09-19T12:07:43.083Z,28.52
2018-09-19T12:08:43.226Z,28.48
2018-09-19T12:09:43.496Z,28.5
2018-09-19T12:10:43.204Z,28.51
2018-09-19T12:11:43.101Z,28.48
2018-09-19T12:12:43.229Z,28.5
2018-09-19T12:13:43.088Z,28.47
2018-09-19T12:14:43.042Z,28.48
2018-09-19T12:15:43.239Z,28.55
2018-09-19T12:16:43.079Z,28.61
2018-09-19T12:17:43.352Z,28.61
2018-09-19T12:18:43.146Z,28.6
2018-09-19T12:19:43.272Z,28.64
2018-09-19T12:20:43.113Z,28.64
2018-09-19T12:21:43.277Z,28.68
2018-09-19T12:22:42.978Z,28.74
2018-09-19T12:23:43.028Z,28.81
2018-09-19T12:24:43.300Z,28.74
2018-09-19T12:25:43.146Z,28.77
2018-09-19T12:26:43.213Z,28.79
2018-09-19T12:27:43.105Z,28.82
2018-09-19T12:28:42.952Z,28.81
2018-09-19T12:29:42.931Z,28.75
2018-09-19T12:30:43.445Z,28.79
2018-09-19T12:31:43.109Z,28.82
2018-09-19T12:32:43.331Z,28.85
2018-09-19T12:33:43.067Z,28.88
2018-09-19T12:34:43.091Z,28.91
2018-09-19T12:35:43.307Z,28.94
2018-09-19T12:36:43.066Z,28.92
2018-09-19T12:37:43.801Z,28.99
2018-09-19T12:38:42.915Z,28.98
2018-09-19T12:39:43.198Z,28.91
2018-09-19T12:40:43.063Z,28.92
2018-09-19T12:41:43.121Z,28.95
2018-09-19T12:42:43.004Z,28.95
2018-09-19T12:43:42.963Z,28.95
2018-09-19T12:44:43.269Z,28.96
2018-09-19T12:45:43.185Z,28.98
2018-09-19T12:46:43.079Z,28.89
2018-09-19T12:47:42.982Z,28.85
2018-09-19T12:48:44.170Z,28.78
2018-09-19T12:49:42.948Z,28.78
2018-09-19T12:50:43.069Z,28.78
2018-09-19T12:51:43.063Z,28.85
2018-09-19T12:52:43.049Z,28.86
2018-09-19T12:53:42.907Z,28.89
2018-09-19T12:54:43.208Z,28.92
2018-09-19T12:55:43.003Z,28.92